createdAt,value
2022-08-05T00:00:17.601Z,5.93
2022-08-05T00:02:50.464Z,5.63
2022-08-05T00:06:01.506Z,5.73
2022-08-05T00:08:20.044Z,5.43
2022-08-05T00:10:54.427Z,5.50
2022-08-05T00:13:21.153Z,5.60
2022-08-05T00:16:06.025Z,5.43
2022-08-05T00:18:35.904Z,5.20
2022-08-05T00:21:06.489Z,5.30
2022-08-05T00:23:45.813Z,5.63
2022-08-05T00:26:15.318Z,5.77
2022-08-05T00:28:44.185Z,5.00
2022-08-05T00:31:13.819Z,5.47
2022-08-05T00:34:53.219Z,5.13
2022-08-05T00:37:09.901Z,5.80
2022-08-05T00:39:15.037Z,5.50
2022-08-05T00:41:54.913Z,5.30
2022-08-05T00:44:30.932Z,5.40
2022-08-05T00:47:01.911Z,5.70
2022-08-05T00:49:44.772Z,5.70
2022-08-05T00:52:28.812Z,5.60
2022-08-05T00:54:56.013Z,5.30
2022-08-05T00:57:25.410Z,5.30
2022-08-05T01:00:07.138Z,5.43
2022-08-05T01:02:37.981Z,5.30
2022-08-05T01:05:10.043Z,5.20
2022-08-05T01:07:37.761Z,5.90
2022-08-05T01:10:31.932Z,5.23
2022-08-05T01:13:13.368Z,5.50
2022-08-05T01:15:58.607Z,4.93
2022-08-05T01:18:32.764Z,5.23
2022-08-05T01:21:12.609Z,5.27
2022-08-05T01:24:19.340Z,5.97
2022-08-05T01:26:54.688Z,5.70
2022-08-05T01:29:29.278Z,5.97
2022-08-05T01:32:02.123Z,5.27
2022-08-05T01:34:42.852Z,5.63
2022-08-05T01:37:24.686Z,5.30
2022-08-05T01:39:58.843Z,5.50
2022-08-05T01:42:27.708Z,5.17
2022-08-05T01:44:56.907Z,5.17
2022-08-05T01:47:39.655Z,5.10
2022-08-05T01:50:15.408Z,5.10
2022-08-05T01:52:49.721Z,5.73
2022-08-05T01:55:20.473Z,5.00
2022-08-05T01:58:12.156Z,5.10
2022-08-05T02:00:41.522Z,5.97
2022-08-05T02:03:28.967Z,5.63
2022-08-05T02:06:03.582Z,5.10
2022-08-05T02:08:58.654Z,5.33
2022-08-05T02:11:34.141Z,5.63
2022-08-05T02:14:14.673Z,5.73
2022-08-05T02:16:53.152Z,5.53
2022-08-05T02:19:27.299Z,5.20
2022-08-05T02:21:57.272Z,5.60
2022-08-05T02:24:39.357Z,5.30
2022-08-05T02:27:11.257Z,5.27
2022-08-05T02:30:00.060Z,5.30
2022-08-05T02:32:31.611Z,5.20
2022-08-05T02:35:13.867Z,5.40
2022-08-05T02:37:47.605Z,5.33
2022-08-05T02:40:22.697Z,5.30
2022-08-05T02:42:54.038Z,5.30
2022-08-05T02:45:24.196Z,5.23
2022-08-05T02:48:06.918Z,4.90
2022-08-05T02:50:43.956Z,5.93
2022-08-05T02:53:19.199Z,5.60
2022-08-05T02:56:00.042Z,5.60
2022-08-05T02:58:30.259Z,5.60
2022-08-05T03:01:02.232Z,5.20
2022-08-05T03:03:34.273Z,5.20
2022-08-05T03:06:55.961Z,5.47
2022-08-05T03:09:06.934Z,5.30
2022-08-05T03:11:57.446Z,5.60
2022-08-05T03:14:21.707Z,5.87
2022-08-05T03:16:48.756Z,5.50
2022-08-05T03:19:33.117Z,5.40
2022-08-05T03:22:01.536Z,5.60
2022-08-05T03:24:30.769Z,5.43
2022-08-05T03:27:01.403Z,5.33
2022-08-05T03:29:45.119Z,6.20
2022-08-05T03:32:16.908Z,5.50
2022-08-05T03:34:50.432Z,5.83
2022-08-05T03:37:23.498Z,6.43
2022-08-05T03:40:01.158Z,6.10
2022-08-05T03:42:32.281Z,5.90
2022-08-05T03:45:22.383Z,6.07
2022-08-05T03:47:51.189Z,5.53
2022-08-05T03:50:18.887Z,5.70
2022-08-05T03:55:50.442Z,5.60
2022-08-05T03:56:33.158Z,6.10
2022-08-05T03:59:06.252Z,5.80
2022-08-05T04:01:39.476Z,5.90
2022-08-05T04:04:09.918Z,5.70
2022-08-05T04:06:38.500Z,5.90
2022-08-05T04:09:26.184Z,5.87
2022-08-05T04:11:56.586Z,5.67
2022-08-05T04:14:30.405Z,5.70
2022-08-05T04:17:00.771Z,6.27
2022-08-05T04:19:29.758Z,6.57
2022-08-05T04:22:08.433Z,6.10
2022-08-05T04:24:52.243Z,6.17
2022-08-05T04:27:41.505Z,6.63
2022-08-05T04:30:09.550Z,6.60
2022-08-05T04:32:36.730Z,5.70
2022-08-05T04:35:05.887Z,5.93
2022-08-05T04:38:01.046Z,5.57
2022-08-05T04:40:19.817Z,5.70
2022-08-05T04:42:46.714Z,5.60
2022-08-05T04:45:14.125Z,5.57
2022-08-05T04:47:49.809Z,5.13
2022-08-05T04:50:37.264Z,5.33
2022-08-05T04:53:04.977Z,5.07
2022-08-05T04:56:15.490Z,4.33
2022-08-05T04:58:26.351Z,4.83
2022-08-05T05:00:53.100Z,4.67
2022-08-05T05:03:20.337Z,4.67
2022-08-05T05:06:36.668Z,4.83
2022-08-05T05:08:37.271Z,4.67
2022-08-05T05:11:10.379Z,4.60
2022-08-05T05:13:43.166Z,4.17
2022-08-05T05:16:10.595Z,4.10
2022-08-05T05:18:38.549Z,4.20
2022-08-05T05:21:05.739Z,4.87
2022-08-05T05:23:39.484Z,4.77
2022-08-05T05:26:28.532Z,4.23
2022-08-05T05:28:59.684Z,4.47
2022-08-05T05:31:26.699Z,4.57
2022-08-05T05:34:01.956Z,4.73
2022-08-05T05:36:30.741Z,5.70
2022-08-05T05:38:58.848Z,7.87
2022-08-05T05:41:25.855Z,11.00
2022-08-05T05:44:26.979Z,5.90
2022-08-05T05:46:54.591Z,7.83
2022-08-05T05:49:24.786Z,4.50
2022-08-05T05:51:51.576Z,4.30
2022-08-05T05:54:20.489Z,4.70
2022-08-05T05:56:47.968Z,4.07
2022-08-05T05:59:14.696Z,4.43
2022-08-05T06:01:57.569Z,4.53
2022-08-05T06:04:24.823Z,4.20
2022-08-05T06:06:51.640Z,4.15
2022-08-05T06:09:24.806Z,3.95
2022-08-05T06:12:01.303Z,4.10
2022-08-05T06:14:33.379Z,4.82
2022-08-05T06:17:22.639Z,4.03
2022-08-05T06:19:56.671Z,4.03
2022-08-05T06:22:28.133Z,4.30
2022-08-05T06:24:55.180Z,4.07
2022-08-05T06:28:09.469Z,4.05
2022-08-05T06:30:16.786Z,3.90
2022-08-05T06:32:46.988Z,3.83
2022-08-05T06:35:15.545Z,4.53
2022-08-05T06:38:04.298Z,4.10
2022-08-05T06:40:37.880Z,4.32
2022-08-05T06:43:57.867Z,4.10
2022-08-05T06:46:03.563Z,3.75
2022-08-05T06:48:54.780Z,3.97
2022-08-05T06:51:29.327Z,3.90
2022-08-05T06:53:58.812Z,4.10
2022-08-05T06:56:27.023Z,3.85
2022-08-05T06:58:54.876Z,4.28
2022-08-05T07:01:22.658Z,3.90
2022-08-05T07:03:50.056Z,4.32
2022-08-05T07:06:19.217Z,4.40
2022-08-05T07:08:53.215Z,4.45
2022-08-05T07:11:22.139Z,4.10
2022-08-05T07:14:20.760Z,4.55
2022-08-05T07:17:58.189Z,4.20
2022-08-05T07:20:31.463Z,3.70
2022-08-05T07:22:33.962Z,4.38
2022-08-05T07:25:23.118Z,4.53
2022-08-05T07:27:58.073Z,4.13
2022-08-05T07:30:34.543Z,4.50
2022-08-05T07:33:09.575Z,4.18
2022-08-05T07:36:02.653Z,4.05
2022-08-05T07:38:33.640Z,4.05
2022-08-05T07:42:06.892Z,4.38
2022-08-05T07:43:55.016Z,4.15
2022-08-05T07:46:25.496Z,4.28
2022-08-05T07:49:04.939Z,4.15
2022-08-05T07:51:48.505Z,4.07
2022-08-05T07:54:26.228Z,4.10
2022-08-05T07:57:01.507Z,4.13
2022-08-05T07:59:41.199Z,3.60
2022-08-05T08:02:16.704Z,4.47
2022-08-05T08:04:48.682Z,4.20
2022-08-05T08:07:17.693Z,4.38
2022-08-05T08:09:45.849Z,4.40
2022-08-05T08:12:36.849Z,4.50
2022-08-05T08:15:03.488Z,4.90
2022-08-05T08:17:32.490Z,4.53
2022-08-05T08:20:44.442Z,4.63
2022-08-05T08:22:55.852Z,4.68
2022-08-05T08:25:26.849Z,5.03
2022-08-05T08:28:18.474Z,5.20
2022-08-05T08:30:57.980Z,5.00
2022-08-05T08:33:25.008Z,4.72
2022-08-05T08:36:07.977Z,4.88
2022-08-05T08:38:40.839Z,5.30
2022-08-05T08:41:14.018Z,4.82
2022-08-05T08:45:22.543Z,4.90
2022-08-05T08:46:31.927Z,5.55
2022-08-05T08:49:17.359Z,5.28
2022-08-05T08:52:03.411Z,5.25
2022-08-05T08:54:34.198Z,5.65
2022-08-05T08:57:06.511Z,5.63
2022-08-05T08:59:38.712Z,6.05
2022-08-05T09:02:09.082Z,5.70
2022-08-05T09:04:58.164Z,5.40
2022-08-05T09:07:28.423Z,5.82
2022-08-05T09:09:56.422Z,5.63
2022-08-05T09:12:27.758Z,5.45
2022-08-05T09:14:59.593Z,5.68
2022-08-05T09:17:42.303Z,5.32
2022-08-05T09:20:20.865Z,5.60
2022-08-05T09:23:18.734Z,5.60
2022-08-05T09:26:01.166Z,6.25
2022-08-05T09:28:33.427Z,5.30
2022-08-05T09:31:23.511Z,5.50
2022-08-05T09:34:06.583Z,5.40
2022-08-05T09:36:54.654Z,5.20
2022-08-05T09:39:41.215Z,5.38
2022-08-05T09:42:13.537Z,4.97
2022-08-05T09:44:49.309Z,5.50
2022-08-05T09:47:25.757Z,4.90
2022-08-05T09:50:01.185Z,5.43
2022-08-05T09:52:31.954Z,5.00
2022-08-05T09:55:58.717Z,5.20
2022-08-05T09:58:00.043Z,5.38
2022-08-05T10:00:30.387Z,5.13
2022-08-05T10:02:58.577Z,4.78
2022-08-05T10:05:28.343Z,4.55
2022-08-05T10:08:34.865Z,5.40
2022-08-05T10:10:44.641Z,5.07
2022-08-05T10:13:12.882Z,5.45
2022-08-05T10:15:42.224Z,5.28
2022-08-05T10:18:09.346Z,5.10
2022-08-05T10:20:44.148Z,5.25
2022-08-05T10:23:34.534Z,5.03
2022-08-05T10:26:13.912Z,5.20
2022-08-05T10:28:44.112Z,4.95
2022-08-05T10:32:49.237Z,5.00
2022-08-05T10:34:00.683Z,5.10
2022-08-05T10:36:27.598Z,4.90
2022-08-05T10:39:04.990Z,4.60
2022-08-05T10:41:50.563Z,5.00
2022-08-05T10:44:20.296Z,4.40
2022-08-05T10:46:54.424Z,3.90
2022-08-05T10:49:27.597Z,4.35
2022-08-05T10:52:03.256Z,4.47
2022-08-05T10:55:02.382Z,4.60
2022-08-05T10:57:32.423Z,4.28
2022-08-05T11:00:20.887Z,4.05
2022-08-05T11:03:24.776Z,4.43
2022-08-05T11:06:08.737Z,4.60
2022-08-05T11:09:10.837Z,4.47
2022-08-05T11:11:44.502Z,4.80
2022-08-05T11:14:57.693Z,4.57
2022-08-05T11:17:57.441Z,4.70
2022-08-05T11:20:43.658Z,4.55
2022-08-05T11:23:33.365Z,4.65
2022-08-05T11:26:08.817Z,4.38
2022-08-05T11:28:36.154Z,4.50
2022-08-05T11:31:06.421Z,4.40
2022-08-05T11:33:46.321Z,4.43
2022-08-05T11:36:34.356Z,4.05
2022-08-05T11:39:08.231Z,4.50
2022-08-05T11:41:56.378Z,4.68
2022-08-05T11:44:53.103Z,4.40
2022-08-05T11:47:15.229Z,4.18
2022-08-05T11:49:50.999Z,4.47
2022-08-05T11:52:29.511Z,4.35
2022-08-05T11:55:07.082Z,4.07
2022-08-05T11:58:08.697Z,4.10
2022-08-05T12:00:31.890Z,4.05
2022-08-05T12:03:29.651Z,4.10
2022-08-05T12:06:05.816Z,4.55
2022-08-05T12:08:51.140Z,4.30
2022-08-05T12:11:21.870Z,4.38
2022-08-05T12:13:55.986Z,4.35
2022-08-05T12:16:29.817Z,4.78
2022-08-05T12:18:56.536Z,4.35
2022-08-05T12:21:39.218Z,4.30
2022-08-05T12:24:18.224Z,5.00
2022-08-05T12:26:47.356Z,5.53
2022-08-05T12:29:23.075Z,4.30
2022-08-05T12:31:55.957Z,5.18
2022-08-05T12:34:31.061Z,4.53
2022-08-05T12:37:01.558Z,6.45
2022-08-05T12:39:37.315Z,4.93
2022-08-05T12:42:14.684Z,4.50
2022-08-05T12:44:44.357Z,4.53
2022-08-05T12:47:12.848Z,4.60
2022-08-05T12:50:03.421Z,4.10
2022-08-05T12:52:39.230Z,4.28
2022-08-05T12:55:21.840Z,4.22
2022-08-05T12:58:49.556Z,4.20
2022-08-05T13:02:00.628Z,4.22
2022-08-05T13:03:32.224Z,5.60
2022-08-05T13:06:06.663Z,4.50
2022-08-05T13:08:38.597Z,4.30
2022-08-05T13:11:07.740Z,4.20
2022-08-05T13:14:06.835Z,4.28
2022-08-05T13:16:28.051Z,3.92
2022-08-05T13:18:59.535Z,4.68
2022-08-05T13:21:28.117Z,4.43
2022-08-05T13:24:04.863Z,3.80
2022-08-05T13:26:31.948Z,6.00
2022-08-05T13:28:58.936Z,4.15
2022-08-05T13:32:03.486Z,4.25
2022-08-05T13:34:24.262Z,5.30
2022-08-05T13:36:53.817Z,4.45
2022-08-05T13:39:24.800Z,4.40
2022-08-05T13:42:14.079Z,4.45
2022-08-05T13:44:46.257Z,4.60
2022-08-05T13:47:35.625Z,4.28
2022-08-05T13:50:04.397Z,5.60
2022-08-05T13:52:31.789Z,5.82
2022-08-05T13:55:07.649Z,4.32
2022-08-05T13:57:48.988Z,4.25
2022-08-05T14:00:26.984Z,4.15
2022-08-05T14:02:58.023Z,4.47
2022-08-05T14:05:48.334Z,4.50
2022-08-05T14:08:21.385Z,4.45
2022-08-05T14:11:03.112Z,4.38
2022-08-05T14:13:42.547Z,4.55
2022-08-05T14:16:11.773Z,4.38
2022-08-05T14:18:43.996Z,4.75
2022-08-05T14:21:23.859Z,4.10
2022-08-05T14:23:57.716Z,4.53
2022-08-05T14:26:38.625Z,4.90
2022-08-05T14:29:15.971Z,5.30
2022-08-05T14:32:03.084Z,4.22
2022-08-05T14:34:35.336Z,3.80
2022-08-05T14:37:05.803Z,4.40
2022-08-05T14:39:50.272Z,4.35
2022-08-05T14:42:21.688Z,4.50
2022-08-05T14:44:49.351Z,4.35
2022-08-05T14:47:16.764Z,4.53
2022-08-05T14:50:17.802Z,7.97
2022-08-05T14:52:53.084Z,4.95
2022-08-05T14:55:24.399Z,5.07
2022-08-05T14:57:54.750Z,4.45
2022-08-05T15:00:28.057Z,4.65
2022-08-05T15:02:58.217Z,4.97
2022-08-05T15:05:30.082Z,5.00
2022-08-05T15:08:17.974Z,4.63
2022-08-05T15:11:00.827Z,4.13
2022-08-05T15:13:28.610Z,4.25
2022-08-05T15:16:13.349Z,4.10
2022-08-05T15:18:40.345Z,4.00
2022-08-05T15:21:08.675Z,3.78
2022-08-05T15:23:35.483Z,4.50
2022-08-05T15:26:04.939Z,4.43
2022-08-05T15:28:31.688Z,4.20
2022-08-05T15:30:58.460Z,4.95
2022-08-05T15:34:19.073Z,4.30
2022-08-05T15:36:17.249Z,4.60
2022-08-05T15:38:50.843Z,5.53
2022-08-05T15:41:57.533Z,5.15
2022-08-05T15:44:24.506Z,4.47
2022-08-05T15:46:52.694Z,4.65
2022-08-05T15:49:27.394Z,4.57
2022-08-05T15:52:13.100Z,4.47
2022-08-05T15:54:42.934Z,4.10
2022-08-05T15:57:10.033Z,4.38
2022-08-05T15:59:38.201Z,4.97
2022-08-05T16:02:09.762Z,4.50
2022-08-05T16:04:42.356Z,4.60
2022-08-05T16:07:10.622Z,4.70
2022-08-05T16:09:37.779Z,6.13
2022-08-05T16:12:09.151Z,6.03
2022-08-05T16:14:36.021Z,8.35
2022-08-05T16:17:03.365Z,4.90
2022-08-05T16:20:04.168Z,6.00
2022-08-05T16:22:17.877Z,4.60
2022-08-05T16:24:52.256Z,4.80
2022-08-05T16:27:46.880Z,5.10
2022-08-05T16:30:08.304Z,5.00
2022-08-05T16:32:50.197Z,4.88
2022-08-05T16:35:17.063Z,4.75
2022-08-05T16:38:15.980Z,4.30
2022-08-05T16:40:32.160Z,5.07
2022-08-05T16:42:59.774Z,4.60
2022-08-05T16:46:04.729Z,5.03
2022-08-05T16:48:25.352Z,4.65
2022-08-05T16:50:53.169Z,4.68
2022-08-05T16:53:23.232Z,4.50
2022-08-05T16:55:59.634Z,6.75
2022-08-05T16:58:26.456Z,7.20
2022-08-05T17:00:53.366Z,7.57
2022-08-05T17:03:21.012Z,5.50
2022-08-05T17:05:53.664Z,4.53
2022-08-05T17:08:33.493Z,4.43
2022-08-05T17:11:12.723Z,4.35
2022-08-05T17:13:44.380Z,4.43
2022-08-05T17:16:33.606Z,4.40
2022-08-05T17:18:58.842Z,4.35
2022-08-05T17:21:25.578Z,4.43
2022-08-05T17:24:14.294Z,4.50
2022-08-05T17:26:50.036Z,4.72
2022-08-05T17:29:17.480Z,4.78
2022-08-05T17:31:58.148Z,5.55
2022-08-05T17:34:30.017Z,4.50
2022-08-05T17:36:59.705Z,5.93
2022-08-05T17:39:34.291Z,4.90
2022-08-05T17:42:18.621Z,4.88
2022-08-05T17:44:50.313Z,4.53
2022-08-05T17:47:21.910Z,6.13
2022-08-05T17:50:00.350Z,19.65
2022-08-05T17:52:34.636Z,15.57
2022-08-05T17:55:22.555Z,8.30
2022-08-05T17:57:54.488Z,9.68
2022-08-05T18:00:21.309Z,6.72
2022-08-05T18:02:57.024Z,6.45
2022-08-05T18:05:24.135Z,6.63
2022-08-05T18:07:56.862Z,7.10
2022-08-05T18:10:24.083Z,8.48
2022-08-05T18:12:51.249Z,6.25
2022-08-05T18:15:18.330Z,6.00
2022-08-05T18:17:59.644Z,6.43
2022-08-05T18:20:31.614Z,17.25
2022-08-05T18:23:04.876Z,16.88
2022-08-05T18:25:38.808Z,10.60
2022-08-05T18:28:06.772Z,6.80
2022-08-05T18:30:34.659Z,5.35
2022-08-05T18:33:02.153Z,5.07
2022-08-05T18:36:01.372Z,5.18
2022-08-05T18:38:19.107Z,5.55
2022-08-05T18:41:53.943Z,5.68
2022-08-05T18:43:43.210Z,5.55
2022-08-05T18:46:19.916Z,5.60
2022-08-05T18:48:51.811Z,5.10
2022-08-05T18:52:05.152Z,5.00
2022-08-05T18:54:31.430Z,5.43
2022-08-05T18:57:01.270Z,5.35
2022-08-05T18:59:44.355Z,5.38
2022-08-05T19:02:28.616Z,5.50
2022-08-05T19:05:02.708Z,5.00
2022-08-05T19:07:48.156Z,5.10
2022-08-05T19:10:28.114Z,5.18
2022-08-05T19:12:59.188Z,5.10
2022-08-05T19:15:57.444Z,5.20
2022-08-05T19:18:21.949Z,7.97
2022-08-05T19:20:52.138Z,5.47
2022-08-05T19:24:05.996Z,7.43
2022-08-05T19:26:08.463Z,5.22
2022-08-05T19:28:41.693Z,4.63
2022-08-05T19:31:09.920Z,4.20
2022-08-05T19:33:55.651Z,4.00
2022-08-05T19:36:25.134Z,5.75
2022-08-05T19:39:00.942Z,6.38
2022-08-05T19:41:58.423Z,6.00
2022-08-05T19:44:14.991Z,5.67
2022-08-05T19:46:43.951Z,5.73
2022-08-05T19:49:16.527Z,5.70
2022-08-05T19:52:05.070Z,5.97
2022-08-05T19:54:31.908Z,6.33
2022-08-05T19:57:06.479Z,7.80
2022-08-05T19:59:59.648Z,6.67
2022-08-05T20:02:23.213Z,5.77
2022-08-05T20:04:50.243Z,5.90
2022-08-05T20:07:46.346Z,6.07
2022-08-05T20:10:11.746Z,5.43
2022-08-05T20:12:48.248Z,6.77
2022-08-05T20:15:47.983Z,6.40
2022-08-05T20:18:10.570Z,6.63
2022-08-05T20:20:56.281Z,6.40
2022-08-05T20:23:39.679Z,6.47
2022-08-05T20:26:16.584Z,6.23
2022-08-05T20:28:53.854Z,6.50
2022-08-05T20:31:37.092Z,6.87
2022-08-05T20:34:12.480Z,6.53
2022-08-05T20:36:43.543Z,6.90
2022-08-05T20:39:13.233Z,7.20
2022-08-05T20:41:44.406Z,7.07
2022-08-05T20:44:19.257Z,6.63
2022-08-05T20:47:05.295Z,6.77
2022-08-05T20:49:39.378Z,6.87
2022-08-05T20:52:07.301Z,7.20
2022-08-05T20:54:43.442Z,7.97
2022-08-05T20:57:24.793Z,7.07
2022-08-05T21:00:40.099Z,6.07
2022-08-05T21:03:01.466Z,5.53
2022-08-05T21:05:47.867Z,5.10
2022-08-05T21:08:15.592Z,5.00
2022-08-05T21:10:48.697Z,4.77
2022-08-05T21:13:26.499Z,5.23
2022-08-05T21:16:03.731Z,4.80
2022-08-05T21:18:30.870Z,5.40
2022-08-05T21:20:57.998Z,5.03
2022-08-05T21:23:24.985Z,5.23
2022-08-05T21:25:51.812Z,4.80
2022-08-05T21:28:23.574Z,5.77
2022-08-05T21:30:51.115Z,6.03
2022-08-05T21:33:22.028Z,4.87
2022-08-05T21:35:55.725Z,5.10
2022-08-05T21:38:27.250Z,5.47
2022-08-05T21:40:54.082Z,4.97
2022-08-05T21:43:24.739Z,6.50
2022-08-05T21:45:57.665Z,6.23
2022-08-05T21:48:28.451Z,6.87
2022-08-05T21:50:55.581Z,6.27
2022-08-05T21:53:27.303Z,5.50
2022-08-05T21:56:04.849Z,6.17
2022-08-05T21:58:48.448Z,5.20
2022-08-05T22:01:25.751Z,4.73
2022-08-05T22:03:53.598Z,4.00
2022-08-05T22:06:22.621Z,3.30
2022-08-05T22:08:52.058Z,3.30
2022-08-05T22:11:34.926Z,3.67
2022-08-05T22:14:32.487Z,4.40
2022-08-05T22:16:51.038Z,4.50
2022-08-05T22:20:00.678Z,4.87
2022-08-05T22:22:07.568Z,4.40
2022-08-05T22:24:55.808Z,4.17
2022-08-05T22:28:09.703Z,4.80
2022-08-05T22:30:32.418Z,4.40
2022-08-05T22:33:02.660Z,4.70
2022-08-05T22:35:47.764Z,4.63
2022-08-05T22:38:16.039Z,9.63
2022-08-05T22:40:49.853Z,5.57
2022-08-05T22:43:36.965Z,4.83
2022-08-05T22:46:13.343Z,5.53
2022-08-05T22:48:48.487Z,6.53
2022-08-05T22:51:22.858Z,6.50
2022-08-05T22:53:56.705Z,6.10
2022-08-05T22:56:30.517Z,6.07
2022-08-05T22:59:00.105Z,6.50
2022-08-05T23:02:04.217Z,7.17
2022-08-05T23:04:17.548Z,6.23
2022-08-05T23:06:44.543Z,6.40
2022-08-05T23:09:27.253Z,6.73
2022-08-05T23:11:59.399Z,6.17
2022-08-05T23:14:32.171Z,6.63
2022-08-05T23:17:24.270Z,7.20
2022-08-05T23:19:56.060Z,5.90
2022-08-05T23:22:27.452Z,6.37
2022-08-05T23:24:55.245Z,6.90
2022-08-05T23:27:24.150Z,6.20
2022-08-05T23:29:55.902Z,6.03
2022-08-05T23:32:23.199Z,6.13
2022-08-05T23:34:50.847Z,6.10
2022-08-05T23:37:18.324Z,5.90
2022-08-05T23:39:53.652Z,4.53
2022-08-05T23:42:23.568Z,4.87
2022-08-05T23:44:57.334Z,4.70
2022-08-05T23:47:25.084Z,4.80
2022-08-05T23:49:55.491Z,4.10
2022-08-05T23:52:31.655Z,4.20
2022-08-05T23:55:16.999Z,4.03
2022-08-05T23:57:44.918Z,4.30
